createdAt,value
2023-01-26T00:01:25.641Z,7.25
2023-01-26T00:03:52.632Z,7.85
2023-01-26T00:06:23.385Z,8.77
2023-01-26T00:08:57.027Z,6.55
2023-01-26T00:11:30.385Z,7.68
2023-01-26T00:13:59.395Z,4.13
2023-01-26T00:16:27.596Z,5.97
2023-01-26T00:18:55.456Z,9.20
2023-01-26T00:21:23.900Z,6.47
2023-01-26T00:23:52.585Z,7.18
2023-01-26T00:26:25.267Z,5.93
2023-01-26T00:28:54.651Z,6.55
2023-01-26T00:31:27.436Z,4.70
2023-01-26T00:33:55.969Z,5.35
2023-01-26T00:36:23.033Z,6.95
2023-01-26T00:38:50.251Z,5.40
2023-01-26T00:41:35.804Z,3.47
2023-01-26T00:44:03.052Z,7.07
2023-01-26T00:46:30.174Z,6.25
2023-01-26T00:48:57.377Z,5.53
2023-01-26T00:51:24.375Z,4.53
2023-01-26T00:53:51.434Z,8.07
2023-01-26T00:56:19.889Z,2.55
2023-01-26T00:58:47.097Z,4.70
2023-01-26T01:01:14.202Z,5.57
2023-01-26T01:03:44.036Z,5.00
2023-01-26T01:06:11.855Z,4.75
2023-01-26T01:08:38.946Z,6.15
2023-01-26T01:11:11.596Z,7.15
2023-01-26T01:13:39.670Z,5.57
2023-01-26T01:16:14.759Z,8.52
2023-01-26T01:18:42.469Z,5.57
2023-01-26T01:21:12.705Z,8.07
2023-01-26T01:23:39.960Z,4.13
2023-01-26T01:26:07.397Z,6.75
2023-01-26T01:28:36.258Z,5.30
2023-01-26T01:31:08.726Z,4.50
2023-01-26T01:33:36.489Z,4.05
2023-01-26T01:36:08.262Z,4.65
2023-01-26T01:38:35.560Z,3.90
2023-01-26T01:41:03.562Z,5.63
2023-01-26T01:43:30.640Z,5.38
2023-01-26T01:46:00.841Z,6.55
2023-01-26T01:48:46.538Z,4.68
2023-01-26T01:51:33.455Z,4.72
2023-01-26T01:54:05.438Z,6.13
2023-01-26T01:56:34.460Z,4.95
2023-01-26T01:59:03.706Z,4.05
2023-01-26T02:01:30.815Z,5.80
2023-01-26T02:04:01.931Z,4.03
2023-01-26T02:06:43.779Z,5.10
2023-01-26T02:09:31.490Z,6.35
2023-01-26T02:11:59.814Z,7.90
2023-01-26T02:14:27.760Z,3.92
2023-01-26T02:16:54.799Z,5.10
2023-01-26T02:19:45.095Z,4.63
2023-01-26T02:22:26.207Z,6.22
2023-01-26T02:24:58.945Z,5.47
2023-01-26T02:27:27.163Z,2.00
2023-01-26T02:29:55.815Z,6.03
2023-01-26T02:34:56.794Z,7.38
2023-01-26T02:37:24.478Z,4.68
2023-01-26T02:40:04.153Z,3.93
2023-01-26T02:42:41.835Z,4.25
2023-01-26T02:45:12.677Z,5.10
2023-01-26T02:47:40.617Z,3.28
2023-01-26T02:50:09.857Z,3.97
2023-01-26T02:52:38.625Z,4.75
2023-01-26T02:55:23.397Z,2.78
2023-01-26T02:57:52.341Z,4.22
2023-01-26T03:00:31.781Z,4.35
2023-01-26T03:03:01.811Z,5.97
2023-01-26T03:05:30.787Z,2.08
2023-01-26T03:07:57.811Z,3.85
2023-01-26T03:10:30.897Z,3.58
2023-01-26T03:12:58.094Z,3.22
2023-01-26T03:15:43.305Z,4.07
2023-01-26T03:18:38.089Z,3.95
2023-01-26T03:21:27.999Z,4.55
2023-01-26T03:24:13.469Z,4.65
2023-01-26T03:26:59.631Z,4.28
2023-01-26T03:29:27.588Z,2.28
2023-01-26T03:31:59.416Z,4.53
2023-01-26T03:34:27.235Z,4.10
2023-01-26T03:36:54.246Z,3.63
2023-01-26T03:39:40.100Z,6.22
2023-01-26T03:42:25.955Z,4.22
2023-01-26T03:45:11.574Z,3.78
2023-01-26T03:48:00.175Z,5.60
2023-01-26T03:50:46.213Z,4.55
2023-01-26T03:53:37.479Z,2.90
2023-01-26T03:56:32.352Z,1.83
2023-01-26T03:59:09.495Z,5.55
2023-01-26T04:01:41.202Z,2.65
2023-01-26T04:04:27.711Z,4.00
2023-01-26T04:07:13.872Z,4.45
2023-01-26T04:09:46.458Z,4.43
2023-01-26T04:12:14.187Z,3.20
2023-01-26T04:15:12.107Z,3.70
2023-01-26T04:17:57.557Z,2.83
2023-01-26T04:20:45.636Z,3.40
2023-01-26T04:23:20.879Z,3.90
2023-01-26T04:25:50.357Z,2.92
2023-01-26T04:28:17.731Z,3.83
2023-01-26T04:30:46.592Z,4.00
2023-01-26T04:33:14.345Z,3.03
2023-01-26T04:35:41.361Z,2.25
2023-01-26T04:38:08.584Z,3.25
2023-01-26T04:40:35.672Z,2.50
2023-01-26T04:43:02.952Z,1.48
2023-01-26T04:45:30.084Z,2.00
2023-01-26T04:47:57.282Z,6.63
2023-01-26T04:50:24.601Z,3.50
2023-01-26T04:52:51.713Z,4.13
2023-01-26T04:55:19.880Z,4.10
2023-01-26T04:57:47.037Z,2.22
2023-01-26T05:00:14.501Z,2.63
2023-01-26T05:02:42.306Z,3.45
2023-01-26T05:05:10.343Z,2.75
2023-01-26T05:07:37.946Z,2.63
2023-01-26T05:10:05.936Z,4.10
2023-01-26T05:12:53.204Z,1.98
2023-01-26T05:15:30.534Z,2.45
2023-01-26T05:18:06.241Z,2.70
2023-01-26T05:20:48.763Z,2.10
2023-01-26T05:23:23.983Z,3.47
2023-01-26T05:26:10.113Z,2.80
2023-01-26T05:28:55.548Z,3.60
2023-01-26T05:31:23.245Z,2.88
2023-01-26T05:33:50.735Z,2.45
2023-01-26T05:36:22.051Z,2.05
2023-01-26T05:38:49.232Z,3.33
2023-01-26T05:41:20.509Z,3.03
2023-01-26T05:44:10.451Z,3.05
2023-01-26T05:46:43.927Z,5.80
2023-01-26T05:49:11.307Z,4.95
2023-01-26T05:51:38.337Z,4.50
2023-01-26T05:56:36.587Z,2.88
2023-01-26T05:59:07.440Z,3.78
2023-01-26T06:01:34.819Z,3.60
2023-01-26T06:04:05.777Z,3.42
2023-01-26T06:06:38.418Z,2.00
2023-01-26T06:09:21.113Z,3.95
2023-01-26T06:12:18.341Z,3.13
2023-01-26T06:14:58.289Z,4.10
2023-01-26T06:17:34.093Z,2.95
2023-01-26T06:20:04.792Z,3.92
2023-01-26T06:22:32.217Z,3.60
2023-01-26T06:24:59.642Z,3.63
2023-01-26T06:27:26.700Z,4.10
2023-01-26T06:29:54.135Z,3.95
2023-01-26T06:32:22.641Z,2.65
2023-01-26T06:34:54.161Z,3.65
2023-01-26T06:37:22.298Z,3.50
2023-01-26T06:39:51.333Z,4.03
2023-01-26T06:42:18.450Z,3.33
2023-01-26T06:44:45.528Z,3.75
2023-01-26T06:47:14.050Z,4.88
2023-01-26T06:49:42.310Z,3.47
2023-01-26T06:52:30.976Z,3.28
2023-01-26T06:55:23.888Z,4.07
2023-01-26T06:58:14.832Z,5.65
2023-01-26T07:01:00.779Z,3.25
2023-01-26T07:03:34.741Z,2.65
2023-01-26T07:06:01.878Z,3.80
2023-01-26T07:08:28.876Z,4.18
2023-01-26T07:10:55.886Z,5.80
2023-01-26T07:13:26.798Z,4.65
2023-01-26T07:16:04.669Z,5.45
2023-01-26T07:18:34.121Z,4.22
2023-01-26T07:21:07.839Z,3.53
2023-01-26T07:23:35.246Z,6.53
2023-01-26T07:26:02.794Z,4.55
2023-01-26T07:28:30.771Z,5.32
2023-01-26T07:30:58.894Z,4.88
2023-01-26T07:33:26.389Z,4.60
2023-01-26T07:35:54.244Z,3.78
2023-01-26T07:38:21.530Z,5.75
2023-01-26T07:40:48.660Z,5.10
2023-01-26T07:43:15.719Z,2.78
2023-01-26T07:45:54.304Z,4.10
2023-01-26T07:48:23.474Z,6.70
2023-01-26T07:50:50.735Z,6.70
2023-01-26T07:53:19.485Z,4.25
2023-01-26T07:55:47.304Z,5.38
2023-01-26T07:58:14.370Z,4.93
2023-01-26T08:00:41.469Z,6.60
2023-01-26T08:03:08.532Z,5.78
2023-01-26T08:05:37.133Z,5.28
2023-01-26T08:08:04.872Z,7.60
2023-01-26T08:10:32.265Z,6.35
2023-01-26T08:13:00.730Z,5.68
2023-01-26T08:15:28.772Z,4.28
2023-01-26T08:17:56.020Z,5.57
2023-01-26T08:20:23.751Z,7.22
2023-01-26T08:22:50.776Z,6.73
2023-01-26T08:25:17.841Z,6.30
2023-01-26T08:27:44.927Z,5.25
2023-01-26T08:30:13.682Z,4.60
2023-01-26T08:32:40.996Z,7.25
2023-01-26T08:35:08.384Z,7.80
2023-01-26T08:37:35.464Z,6.38
2023-01-26T08:40:02.504Z,8.80
2023-01-26T08:42:29.589Z,6.38
2023-01-26T08:44:56.610Z,7.07
2023-01-26T08:47:23.758Z,4.68
2023-01-26T08:49:50.706Z,6.43
2023-01-26T08:52:18.342Z,7.05
2023-01-26T08:54:45.364Z,5.07
2023-01-26T08:57:12.459Z,8.63
2023-01-26T08:59:39.580Z,6.32
2023-01-26T09:02:06.892Z,7.53
2023-01-26T09:04:34.127Z,9.30
2023-01-26T09:07:01.265Z,9.55
2023-01-26T09:09:28.413Z,7.53
2023-01-26T09:11:56.377Z,6.68
2023-01-26T09:14:23.974Z,4.70
2023-01-26T09:16:51.081Z,9.30
2023-01-26T09:19:18.150Z,7.13
2023-01-26T09:21:45.131Z,7.18
2023-01-26T09:24:12.137Z,9.02
2023-01-26T09:26:39.238Z,6.43
2023-01-26T09:29:06.227Z,9.30
2023-01-26T09:31:33.353Z,7.50
2023-01-26T09:34:00.467Z,8.52
2023-01-26T09:36:27.571Z,7.85
2023-01-26T09:38:54.614Z,5.32
2023-01-26T09:41:33.824Z,7.97
2023-01-26T09:44:08.071Z,8.57
2023-01-26T09:47:05.810Z,4.80
2023-01-26T09:49:56.754Z,5.78
2023-01-26T09:52:28.476Z,7.43
2023-01-26T09:54:59.324Z,8.70
2023-01-26T09:57:44.575Z,8.43
2023-01-26T10:00:28.104Z,6.88
2023-01-26T10:03:13.529Z,7.18
2023-01-26T10:05:58.122Z,8.60
2023-01-26T10:08:44.408Z,7.13
2023-01-26T10:11:29.689Z,6.00
2023-01-26T10:14:07.514Z,7.22
2023-01-26T10:16:34.920Z,7.50
2023-01-26T10:19:30.920Z,6.28
2023-01-26T10:22:03.796Z,9.43
2023-01-26T10:24:33.335Z,8.52
2023-01-26T10:27:07.504Z,9.48
2023-01-26T10:29:39.163Z,6.30
2023-01-26T10:32:10.061Z,8.07
2023-01-26T10:34:41.208Z,7.40
2023-01-26T10:42:33.087Z,9.77
2023-01-26T10:45:32.067Z,7.45
2023-01-26T10:48:20.344Z,7.55
2023-01-26T10:50:48.744Z,10.68
2023-01-26T10:53:22.710Z,8.98
2023-01-26T10:56:17.985Z,9.63
2023-01-26T10:58:49.383Z,7.85
2023-01-26T11:01:18.967Z,7.05
2023-01-26T11:04:07.677Z,11.23
2023-01-26T11:06:38.231Z,10.20
2023-01-26T11:09:25.534Z,11.38
2023-01-26T11:12:07.052Z,9.93
2023-01-26T11:14:34.902Z,7.05
2023-01-26T11:17:22.746Z,6.97
2023-01-26T11:20:28.563Z,10.23
2023-01-26T11:26:19.288Z,9.35
2023-01-26T11:29:37.725Z,9.27
2023-01-26T11:32:30.350Z,10.52
2023-01-26T11:35:15.242Z,11.30
2023-01-26T11:37:48.041Z,10.35
2023-01-26T11:40:42.367Z,8.50
2023-01-26T11:43:24.683Z,9.70
2023-01-26T11:46:00.882Z,7.80
2023-01-26T11:49:09.127Z,10.75
2023-01-26T11:54:22.102Z,7.45
2023-01-26T11:56:54.184Z,9.18
2023-01-26T11:59:30.355Z,8.63
2023-01-26T12:02:17.733Z,7.88
2023-01-26T12:04:49.217Z,11.90
2023-01-26T12:07:21.504Z,10.27
2023-01-26T12:09:52.376Z,8.50
2023-01-26T12:12:45.117Z,6.97
2023-01-26T12:15:25.390Z,9.95
2023-01-26T12:18:07.407Z,9.93
2023-01-26T12:20:55.990Z,7.28
2023-01-26T12:23:45.461Z,11.15
2023-01-26T12:26:16.279Z,9.75
2023-01-26T12:29:01.587Z,5.80
2023-01-26T12:31:41.516Z,8.18
2023-01-26T12:34:13.632Z,8.80
2023-01-26T12:37:01.056Z,5.78
2023-01-26T12:39:39.682Z,8.70
2023-01-26T12:42:51.293Z,8.25
2023-01-26T12:45:49.201Z,6.30
2023-01-26T12:48:35.408Z,8.50
2023-01-26T12:54:04.708Z,7.53
2023-01-26T12:56:39.787Z,10.57
2023-01-26T12:59:39.742Z,7.80
2023-01-26T13:02:23.142Z,9.60
2023-01-26T13:04:51.116Z,5.38
2023-01-26T13:07:36.818Z,10.00
2023-01-26T13:10:20.647Z,7.82
2023-01-26T13:13:00.785Z,7.47
2023-01-26T13:15:30.730Z,7.63
2023-01-26T13:18:00.501Z,8.27
2023-01-26T13:20:47.829Z,7.90
2023-01-26T13:23:44.168Z,8.45
2023-01-26T13:26:15.860Z,4.18
2023-01-26T13:28:44.140Z,8.45
2023-01-26T13:31:28.232Z,6.82
2023-01-26T13:33:57.204Z,6.82
2023-01-26T13:36:24.834Z,6.78
2023-01-26T13:39:04.688Z,7.27
2023-01-26T13:41:43.196Z,6.53
2023-01-26T13:44:37.480Z,4.93
2023-01-26T13:47:15.652Z,4.53
2023-01-26T13:49:43.642Z,6.53
2023-01-26T13:52:21.724Z,4.53
2023-01-26T13:54:50.772Z,2.80
2023-01-26T13:57:30.036Z,3.75
2023-01-26T14:00:01.693Z,4.40
2023-01-26T14:02:36.391Z,4.03
2023-01-26T14:05:04.015Z,2.78
2023-01-26T14:07:40.947Z,3.00
2023-01-26T14:10:15.218Z,5.45
2023-01-26T14:12:45.770Z,4.25
2023-01-26T14:15:29.154Z,2.05
2023-01-26T14:18:01.322Z,2.72
2023-01-26T14:20:37.184Z,3.92
2023-01-26T14:23:15.731Z,4.20
2023-01-26T14:28:16.643Z,2.17
2023-01-26T14:30:43.994Z,3.35
2023-01-26T14:33:16.670Z,1.75
2023-01-26T14:36:05.241Z,3.05
2023-01-26T14:38:44.607Z,3.30
2023-01-26T14:41:30.324Z,3.05
2023-01-26T14:44:01.858Z,3.25
2023-01-26T14:46:49.325Z,1.40
2023-01-26T14:49:42.835Z,4.53
2023-01-26T14:52:29.915Z,2.08
2023-01-26T14:54:59.565Z,2.40
2023-01-26T14:57:28.547Z,6.22
2023-01-26T15:00:02.735Z,2.83
2023-01-26T15:02:37.522Z,3.85
2023-01-26T15:05:35.149Z,2.97
2023-01-26T15:08:06.162Z,3.33
2023-01-26T15:10:39.974Z,5.32
2023-01-26T15:13:18.443Z,2.15
2023-01-26T15:18:22.046Z,2.95
2023-01-26T15:20:52.185Z,4.55
2023-01-26T15:23:35.858Z,2.83
2023-01-26T15:26:14.195Z,5.13
2023-01-26T15:28:41.496Z,3.63
2023-01-26T15:31:20.614Z,2.58
2023-01-26T15:33:49.766Z,3.00
2023-01-26T15:36:24.410Z,4.30
2023-01-26T15:39:01.010Z,3.38
2023-01-26T15:41:29.130Z,3.53
2023-01-26T15:43:57.648Z,5.55
2023-01-26T15:46:24.720Z,4.32
2023-01-26T15:48:51.812Z,4.30
2023-01-26T15:51:19.565Z,2.97
2023-01-26T15:53:46.578Z,3.17
2023-01-26T15:56:16.829Z,5.03
2023-01-26T15:58:44.279Z,3.70
2023-01-26T16:01:22.428Z,3.97
2023-01-26T16:03:50.815Z,3.22
2023-01-26T16:06:32.632Z,2.75
2023-01-26T16:08:59.867Z,4.00
2023-01-26T16:11:31.201Z,1.80
2023-01-26T16:14:03.747Z,3.92
2023-01-26T16:16:32.603Z,2.78
2023-01-26T16:18:59.957Z,4.90
2023-01-26T16:21:31.663Z,4.20
2023-01-26T16:23:59.266Z,4.63
2023-01-26T16:26:27.841Z,5.40
2023-01-26T16:28:55.429Z,4.03
2023-01-26T16:31:30.125Z,3.87
2023-01-26T16:33:57.857Z,4.22
2023-01-26T16:36:24.981Z,3.47
2023-01-26T16:38:52.037Z,4.40
2023-01-26T16:41:27.857Z,2.10
2023-01-26T16:43:57.068Z,3.30
2023-01-26T16:46:27.801Z,3.20
2023-01-26T16:48:54.987Z,3.72
2023-01-26T16:51:28.546Z,4.65
2023-01-26T16:53:56.050Z,2.78
2023-01-26T16:56:24.560Z,3.63
2023-01-26T16:58:51.685Z,4.57
2023-01-26T17:01:22.083Z,5.15
2023-01-26T17:03:49.764Z,4.13
2023-01-26T17:06:18.624Z,3.45
2023-01-26T17:08:46.311Z,4.78
2023-01-26T17:11:22.318Z,2.00
2023-01-26T17:13:50.227Z,5.80
2023-01-26T17:16:20.087Z,3.78
2023-01-26T17:18:48.581Z,4.28
2023-01-26T17:21:18.667Z,4.18
2023-01-26T17:23:49.602Z,6.15
2023-01-26T17:26:18.035Z,4.70
2023-01-26T17:28:49.362Z,5.28
2023-01-26T17:31:21.034Z,4.40
2023-01-26T17:33:49.741Z,3.38
2023-01-26T17:38:44.835Z,3.33
2023-01-26T17:41:11.896Z,4.68
2023-01-26T17:43:38.996Z,7.78
2023-01-26T17:46:07.213Z,8.60
2023-01-26T17:48:36.206Z,10.68
2023-01-26T17:51:06.086Z,9.48
2023-01-26T17:53:33.347Z,9.55
2023-01-26T17:56:00.267Z,5.95
2023-01-26T17:58:27.284Z,7.88
2023-01-26T18:00:54.250Z,7.25
2023-01-26T18:03:26.287Z,10.57
2023-01-26T18:05:54.204Z,7.82
2023-01-26T18:08:21.793Z,8.38
2023-01-26T18:10:49.320Z,10.27
2023-01-26T18:13:16.849Z,10.60
2023-01-26T18:15:45.559Z,12.27
2023-01-26T18:20:40.403Z,10.65
2023-01-26T18:23:07.416Z,8.88
2023-01-26T18:25:35.760Z,7.35
2023-01-26T18:28:08.538Z,7.18
2023-01-26T18:30:35.765Z,7.10
2023-01-26T18:33:03.089Z,5.10
2023-01-26T18:35:30.783Z,7.35
2023-01-26T18:37:58.697Z,4.83
2023-01-26T18:40:25.989Z,6.07
2023-01-26T18:42:56.950Z,5.72
2023-01-26T18:45:24.191Z,6.07
2023-01-26T18:47:51.258Z,4.82
2023-01-26T18:50:18.572Z,5.80
2023-01-26T18:52:45.554Z,7.22
2023-01-26T18:55:13.402Z,4.50
2023-01-26T18:57:40.585Z,5.75
2023-01-26T19:00:10.834Z,5.93
2023-01-26T19:02:38.543Z,6.45
2023-01-26T19:05:09.431Z,7.37
2023-01-26T19:07:36.627Z,7.75
2023-01-26T19:10:06.040Z,8.88
2023-01-26T19:12:33.122Z,6.35
2023-01-26T19:15:00.185Z,5.95
2023-01-26T19:17:27.245Z,6.38
2023-01-26T19:19:54.214Z,5.82
2023-01-26T19:22:21.686Z,4.60
2023-01-26T19:24:48.855Z,3.65
2023-01-26T19:27:15.894Z,7.78
2023-01-26T19:29:42.862Z,7.80
2023-01-26T19:32:09.907Z,8.73
2023-01-26T19:34:36.969Z,3.75
2023-01-26T19:37:03.942Z,8.43
2023-01-26T19:39:31.216Z,8.18
2023-01-26T19:41:58.241Z,7.97
2023-01-26T19:44:25.414Z,10.23
2023-01-26T19:46:53.622Z,6.50
2023-01-26T19:49:21.444Z,6.68
2023-01-26T19:51:48.713Z,6.32
2023-01-26T19:54:16.082Z,7.22
2023-01-26T19:56:43.229Z,6.05
2023-01-26T19:59:12.825Z,7.20
2023-01-26T20:01:39.887Z,4.68
2023-01-26T20:04:11.667Z,6.90
2023-01-26T20:06:38.848Z,5.22
2023-01-26T20:09:07.747Z,5.35
2023-01-26T20:11:35.451Z,5.60
2023-01-26T20:14:08.905Z,6.45
2023-01-26T20:16:40.153Z,6.60
2023-01-26T20:19:07.373Z,3.95
2023-01-26T20:21:35.615Z,4.95
2023-01-26T20:24:06.866Z,4.70
2023-01-26T20:26:34.776Z,4.05
2023-01-26T20:29:01.901Z,5.63
2023-01-26T20:31:29.178Z,5.47
2023-01-26T20:33:56.577Z,6.28
2023-01-26T20:36:27.190Z,3.88
2023-01-26T20:38:56.186Z,8.13
2023-01-26T20:41:28.093Z,6.95
2023-01-26T20:44:01.640Z,7.28
2023-01-26T20:46:31.539Z,8.43
2023-01-26T20:48:58.944Z,6.30
2023-01-26T20:51:29.544Z,5.25
2023-01-26T20:53:57.786Z,6.57
2023-01-26T20:56:24.979Z,4.38
2023-01-26T20:58:53.355Z,7.30
2023-01-26T21:01:21.741Z,5.28
2023-01-26T21:03:49.433Z,5.78
2023-01-26T21:06:21.110Z,4.72
2023-01-26T21:08:50.016Z,6.07
2023-01-26T21:11:17.589Z,6.40
2023-01-26T21:13:45.348Z,8.38
2023-01-26T21:16:16.944Z,4.97
2023-01-26T21:18:46.186Z,6.32
2023-01-26T21:21:17.638Z,5.70
2023-01-26T21:23:45.970Z,5.15
2023-01-26T21:26:15.926Z,5.75
2023-01-26T21:28:43.047Z,4.32
2023-01-26T21:31:15.146Z,3.95
2023-01-26T21:33:44.446Z,4.63
2023-01-26T21:36:14.552Z,3.47
2023-01-26T21:38:44.742Z,7.35
2023-01-26T21:41:32.850Z,6.32
2023-01-26T21:44:02.497Z,2.58
2023-01-26T21:46:30.195Z,3.63
2023-01-26T21:48:57.760Z,2.75
2023-01-26T21:51:44.910Z,3.90
2023-01-26T21:54:12.907Z,3.60
2023-01-26T21:56:40.398Z,2.88
2023-01-26T21:59:11.400Z,3.78
2023-01-26T22:01:44.181Z,4.50
2023-01-26T22:04:14.913Z,3.90
2023-01-26T22:06:42.591Z,4.10
2023-01-26T22:09:12.255Z,2.05
2023-01-26T22:11:39.866Z,2.47
2023-01-26T22:14:08.161Z,3.92
2023-01-26T22:16:35.359Z,4.35
2023-01-26T22:19:02.731Z,3.75
2023-01-26T22:21:29.867Z,4.07
2023-01-26T22:23:57.126Z,1.90
2023-01-26T22:26:24.245Z,1.40
2023-01-26T22:28:56.027Z,2.55
2023-01-26T22:31:27.092Z,1.80
2023-01-26T22:33:55.702Z,2.63
2023-01-26T22:36:22.916Z,2.45
2023-01-26T22:38:50.458Z,2.65
2023-01-26T22:41:20.393Z,1.85
2023-01-26T22:43:48.670Z,2.80
2023-01-26T22:46:17.226Z,1.13
2023-01-26T22:51:14.792Z,2.67
2023-01-26T22:53:42.992Z,1.70
2023-01-26T22:56:10.991Z,2.13
2023-01-26T22:58:51.591Z,3.17
2023-01-26T23:01:24.061Z,2.55
2023-01-26T23:03:52.988Z,2.88
2023-01-26T23:06:20.548Z,1.42
2023-01-26T23:08:47.664Z,2.30
2023-01-26T23:11:27.325Z,1.00
2023-01-26T23:13:56.469Z,2.80
2023-01-26T23:16:27.367Z,1.75
2023-01-26T23:18:57.354Z,1.60
2023-01-26T23:21:25.737Z,2.35
2023-01-26T23:23:52.956Z,3.10
2023-01-26T23:26:20.723Z,1.30
2023-01-26T23:28:48.142Z,4.90
2023-01-26T23:31:17.096Z,2.25
2023-01-26T23:33:44.691Z,5.10
2023-01-26T23:36:13.540Z,1.73
2023-01-26T23:38:40.990Z,3.00
2023-01-26T23:41:12.065Z,2.50
2023-01-26T23:43:39.443Z,3.00
2023-01-26T23:46:07.736Z,1.83
2023-01-26T23:48:35.197Z,3.05
2023-01-26T23:51:05.167Z,1.70
2023-01-26T23:53:33.207Z,2.22
2023-01-26T23:56:03.794Z,1.50
2023-01-26T23:58:31.093Z,1.67
